createdAt,value
2018-08-08T00:00:49.398Z,869.72
2018-08-08T00:01:49.392Z,869.76
2018-08-08T00:02:49.049Z,869.71
2018-08-08T00:03:49.055Z,869.69
2018-08-08T00:04:49.379Z,869.71
2018-08-08T00:05:49.372Z,869.70
2018-08-08T00:06:49.015Z,869.68
2018-08-08T00:07:49.017Z,869.67
2018-08-08T00:08:49.023Z,869.64
2018-08-08T00:09:49.327Z,869.64
2018-08-08T00:10:49.004Z,869.62
2018-08-08T00:11:49.320Z,869.61
2018-08-08T00:12:49.312Z,869.61
2018-08-08T00:13:48.986Z,869.59
2018-08-08T00:14:49.302Z,869.63
2018-08-08T00:15:49.295Z,869.59
2018-08-08T00:16:48.960Z,869.62
2018-08-08T00:17:48.958Z,869.60
2018-08-08T00:18:48.970Z,869.61
2018-08-08T00:19:49.288Z,869.58
2018-08-08T00:20:49.263Z,869.64
2018-08-08T00:21:49.260Z,869.63
2018-08-08T00:22:48.917Z,869.61
2018-08-08T00:23:48.933Z,869.62
2018-08-08T00:24:49.263Z,869.62
2018-08-08T00:25:49.253Z,869.63
2018-08-08T00:26:48.893Z,869.58
2018-08-08T00:27:48.893Z,869.63
2018-08-08T00:28:49.240Z,869.62
2018-08-08T00:29:49.231Z,869.66
2018-08-08T00:30:48.876Z,869.71
2018-08-08T00:31:49.195Z,869.70
2018-08-08T00:32:49.192Z,869.70
2018-08-08T00:33:49.200Z,869.71
2018-08-08T00:34:49.188Z,869.70
2018-08-08T00:35:48.855Z,869.72
2018-08-08T00:36:48.839Z,869.74
2018-08-08T00:37:48.833Z,869.70
2018-08-08T00:38:48.828Z,869.71
2018-08-08T00:39:48.852Z,869.70
2018-08-08T00:40:49.143Z,869.72
2018-08-08T00:41:48.813Z,869.71
2018-08-08T00:42:49.145Z,869.74
2018-08-08T00:43:49.124Z,869.74
2018-08-08T00:44:48.793Z,869.78
2018-08-08T00:45:49.138Z,869.75
2018-08-08T00:46:49.104Z,869.71
2018-08-08T00:47:49.099Z,869.75
2018-08-08T00:48:48.766Z,869.73
2018-08-08T00:49:49.103Z,869.73
2018-08-08T00:50:49.081Z,869.71
2018-08-08T00:51:49.094Z,869.73
2018-08-08T00:52:49.087Z,869.70
2018-08-08T00:53:48.749Z,869.69
2018-08-08T00:54:48.732Z,869.71
2018-08-08T00:55:48.734Z,869.71
2018-08-08T00:56:48.720Z,869.69
2018-08-08T00:57:48.719Z,869.68
2018-08-08T00:58:48.713Z,869.65
2018-08-08T00:59:48.685Z,869.66
2018-08-08T01:00:49.026Z,869.63
2018-08-08T01:01:49.032Z,869.61
2018-08-08T01:02:48.675Z,869.62
2018-08-08T01:03:49.018Z,869.65
2018-08-08T01:04:48.676Z,869.62
2018-08-08T01:05:48.668Z,869.65
2018-08-08T01:06:48.658Z,869.62
2018-08-08T01:07:48.976Z,869.66
2018-08-08T01:08:48.735Z,869.63
2018-08-08T01:09:48.962Z,869.64
2018-08-08T01:10:48.955Z,869.59
2018-08-08T01:11:48.958Z,869.62
2018-08-08T01:12:48.940Z,869.60
2018-08-08T01:13:48.939Z,869.59
2018-08-08T01:14:48.608Z,869.55
2018-08-08T01:15:48.620Z,869.57
2018-08-08T01:16:48.610Z,869.55
2018-08-08T01:17:48.922Z,869.57
2018-08-08T01:18:48.912Z,869.57
2018-08-08T01:19:48.605Z,869.57
2018-08-08T01:20:48.893Z,869.55
2018-08-08T01:21:48.557Z,869.55
2018-08-08T01:22:48.886Z,869.50
2018-08-08T01:23:48.890Z,869.51
2018-08-08T01:24:48.548Z,869.53
2018-08-08T01:25:48.545Z,869.51
2018-08-08T01:26:48.874Z,869.51
2018-08-08T01:27:48.872Z,869.51
2018-08-08T01:28:48.836Z,869.52
2018-08-08T01:29:48.530Z,869.53
2018-08-08T01:30:48.848Z,869.50
2018-08-08T01:31:48.826Z,869.54
2018-08-08T01:32:48.816Z,869.55
2018-08-08T01:33:48.813Z,869.55
2018-08-08T01:34:48.824Z,869.54
2018-08-08T01:35:48.820Z,869.54
2018-08-08T01:36:48.466Z,869.53
2018-08-08T01:37:48.462Z,869.52
2018-08-08T01:38:48.455Z,869.55
2018-08-08T01:39:48.461Z,869.55
2018-08-08T01:40:48.793Z,869.52
2018-08-08T01:41:48.437Z,869.53
2018-08-08T01:42:48.435Z,869.47
2018-08-08T01:43:48.752Z,869.51
2018-08-08T01:44:48.764Z,869.52
2018-08-08T01:45:48.449Z,869.51
2018-08-08T01:46:48.428Z,869.53
2018-08-08T01:47:48.748Z,869.55
2018-08-08T01:48:48.420Z,869.50
2018-08-08T01:49:48.418Z,869.53
2018-08-08T01:50:48.368Z,869.56
2018-08-08T01:51:48.371Z,869.56
2018-08-08T01:52:48.373Z,869.55
2018-08-08T01:53:48.703Z,869.56
2018-08-08T01:54:48.681Z,869.56
2018-08-08T01:55:48.335Z,869.58
2018-08-08T01:56:48.356Z,869.58
2018-08-08T01:57:48.335Z,869.59
2018-08-08T01:58:48.654Z,869.57
2018-08-08T01:59:48.328Z,869.56
2018-08-08T02:00:48.343Z,869.54
2018-08-08T02:01:48.636Z,869.57
2018-08-08T02:02:48.646Z,869.58
2018-08-08T02:03:48.357Z,869.58
2018-08-08T02:04:48.285Z,869.53
2018-08-08T02:05:48.635Z,869.59
2018-08-08T02:06:48.271Z,869.57
2018-08-08T02:07:48.267Z,869.57
2018-08-08T02:08:48.599Z,869.57
2018-08-08T02:09:48.255Z,869.58
2018-08-08T02:10:48.586Z,869.57
2018-08-08T02:11:48.590Z,869.57
2018-08-08T02:12:48.249Z,869.60
2018-08-08T02:13:48.246Z,869.62
2018-08-08T02:14:48.570Z,869.64
2018-08-08T02:15:48.556Z,869.65
2018-08-08T02:16:48.224Z,869.69
2018-08-08T02:17:48.223Z,869.69
2018-08-08T02:18:48.224Z,869.71
2018-08-08T02:19:48.524Z,869.73
2018-08-08T02:20:48.535Z,869.68
2018-08-08T02:21:48.503Z,869.71
2018-08-08T02:22:48.505Z,869.67
2018-08-08T02:23:48.515Z,869.70
2018-08-08T02:24:48.194Z,869.70
2018-08-08T02:25:48.156Z,869.69
2018-08-08T02:26:48.159Z,869.72
2018-08-08T02:27:48.472Z,869.70
2018-08-08T02:28:48.151Z,869.72
2018-08-08T02:29:48.157Z,869.70
2018-08-08T02:30:48.446Z,869.69
2018-08-08T02:31:48.469Z,869.70
2018-08-08T02:32:48.109Z,869.71
2018-08-08T02:33:48.442Z,869.72
2018-08-08T02:34:48.090Z,869.72
2018-08-08T02:35:48.088Z,869.76
2018-08-08T02:36:48.087Z,869.76
2018-08-08T02:37:48.426Z,869.74
2018-08-08T02:38:48.399Z,869.77
2018-08-08T02:39:48.092Z,869.75
2018-08-08T02:40:48.406Z,869.76
2018-08-08T02:41:48.382Z,869.72
2018-08-08T02:42:48.392Z,869.73
2018-08-08T02:43:48.056Z,869.75
2018-08-08T02:44:48.363Z,869.73
2018-08-08T02:45:48.356Z,869.75
2018-08-08T02:46:48.356Z,869.76
2018-08-08T02:47:48.363Z,869.74
2018-08-08T02:48:48.357Z,869.81
2018-08-08T02:49:48.333Z,869.75
2018-08-08T02:50:48.343Z,869.77
2018-08-08T02:51:47.992Z,869.74
2018-08-08T02:52:48.314Z,869.75
2018-08-08T02:53:47.998Z,869.77
2018-08-08T02:54:47.974Z,869.77
2018-08-08T02:55:47.984Z,869.83
2018-08-08T02:56:48.308Z,869.83
2018-08-08T02:57:48.281Z,869.80
2018-08-08T02:58:48.292Z,869.83
2018-08-08T02:59:47.945Z,869.82
2018-08-08T03:00:47.967Z,869.83
2018-08-08T03:01:48.265Z,869.83
2018-08-08T03:02:48.264Z,869.87
2018-08-08T03:03:47.924Z,869.84
2018-08-08T03:04:47.926Z,869.86
2018-08-08T03:05:48.229Z,869.84
2018-08-08T03:06:48.241Z,869.85
2018-08-08T03:07:47.893Z,869.82
2018-08-08T03:08:48.234Z,869.82
2018-08-08T03:09:47.907Z,869.84
2018-08-08T03:10:48.219Z,869.85
2018-08-08T03:11:48.211Z,869.83
2018-08-08T03:12:48.212Z,869.85
2018-08-08T03:13:48.199Z,869.85
2018-08-08T03:14:47.857Z,869.87
2018-08-08T03:15:47.838Z,869.83
2018-08-08T03:16:48.171Z,869.80
2018-08-08T03:17:48.176Z,869.82
2018-08-08T03:18:48.159Z,869.81
2018-08-08T03:19:47.802Z,869.80
2018-08-08T03:20:48.155Z,869.83
2018-08-08T03:21:47.800Z,869.82
2018-08-08T03:22:48.145Z,869.82
2018-08-08T03:23:47.802Z,869.78
2018-08-08T03:24:47.791Z,869.78
2018-08-08T03:25:48.101Z,869.84
2018-08-08T03:26:48.098Z,869.76
2018-08-08T03:27:47.757Z,869.74
2018-08-08T03:28:48.093Z,869.71
2018-08-08T03:29:48.077Z,869.75
2018-08-08T03:30:47.759Z,869.76
2018-08-08T03:31:48.068Z,869.71
2018-08-08T03:32:47.736Z,869.71
2018-08-08T03:33:48.067Z,869.72
2018-08-08T03:34:48.044Z,869.71
2018-08-08T03:35:48.038Z,869.73
2018-08-08T03:36:47.704Z,869.70
2018-08-08T03:37:48.043Z,869.68
2018-08-08T03:38:48.036Z,869.72
2018-08-08T03:39:47.685Z,869.69
2018-08-08T03:40:47.661Z,869.73
2018-08-08T03:41:47.694Z,869.75
2018-08-08T03:42:47.681Z,869.74
2018-08-08T03:43:47.657Z,869.75
2018-08-08T03:44:47.657Z,869.74
2018-08-08T03:45:47.682Z,869.74
2018-08-08T03:46:47.657Z,869.72
2018-08-08T03:47:47.968Z,869.69
2018-08-08T03:48:47.619Z,869.69
2018-08-08T03:49:47.969Z,869.71
2018-08-08T03:50:47.948Z,869.72
2018-08-08T03:51:47.936Z,869.67
2018-08-08T03:52:47.952Z,869.68
2018-08-08T03:53:47.933Z,869.67
2018-08-08T03:54:47.587Z,869.67
2018-08-08T03:55:47.585Z,869.63
2018-08-08T03:56:47.597Z,869.64
2018-08-08T03:57:47.590Z,869.66
2018-08-08T03:58:47.940Z,869.65
2018-08-08T03:59:47.548Z,869.62
2018-08-08T04:00:47.577Z,869.63
2018-08-08T04:01:47.556Z,869.65
2018-08-08T04:02:47.614Z,869.64
2018-08-08T04:03:47.541Z,869.66
2018-08-08T04:04:47.872Z,869.68
2018-08-08T04:05:47.549Z,869.72
2018-08-08T04:06:47.859Z,869.75
2018-08-08T04:07:47.519Z,869.75
2018-08-08T04:08:47.503Z,869.72
2018-08-08T04:09:47.517Z,869.76
2018-08-08T04:10:47.501Z,869.70
2018-08-08T04:11:47.491Z,869.72
2018-08-08T04:12:47.824Z,869.73
2018-08-08T04:13:47.461Z,869.73
2018-08-08T04:14:47.808Z,869.71
2018-08-08T04:15:47.798Z,869.71
2018-08-08T04:16:47.458Z,869.72
2018-08-08T04:17:47.791Z,869.73
2018-08-08T04:18:47.773Z,869.69
2018-08-08T04:19:47.428Z,869.70
2018-08-08T04:20:47.413Z,869.72
2018-08-08T04:21:47.417Z,869.71
2018-08-08T04:22:47.756Z,869.70
2018-08-08T04:23:47.735Z,869.69
2018-08-08T04:24:47.405Z,869.65
2018-08-08T04:25:47.433Z,869.65
2018-08-08T04:26:47.731Z,869.64
2018-08-08T04:27:47.732Z,869.64
2018-08-08T04:28:47.702Z,869.59
2018-08-08T04:29:47.693Z,869.57
2018-08-08T04:30:47.391Z,869.54
2018-08-08T04:31:47.374Z,869.53
2018-08-08T04:32:47.723Z,869.53
2018-08-08T04:33:47.360Z,869.52
2018-08-08T04:34:47.346Z,869.50
2018-08-08T04:35:47.340Z,869.49
2018-08-08T04:36:47.326Z,869.47
2018-08-08T04:37:47.662Z,869.49
2018-08-08T04:38:47.328Z,869.50
2018-08-08T04:39:47.627Z,869.47
2018-08-08T04:40:47.637Z,869.48
2018-08-08T04:41:47.293Z,869.46
2018-08-08T04:42:47.636Z,869.45
2018-08-08T04:43:47.272Z,869.47
2018-08-08T04:44:47.599Z,869.45
2018-08-08T04:45:47.592Z,869.53
2018-08-08T04:46:47.585Z,869.52
2018-08-08T04:47:47.598Z,869.54
2018-08-08T04:48:47.243Z,869.50
2018-08-08T04:49:47.265Z,869.53
2018-08-08T04:50:47.267Z,869.51
2018-08-08T04:51:47.227Z,869.52
2018-08-08T04:52:47.224Z,869.49
2018-08-08T04:53:47.539Z,869.44
2018-08-08T04:54:47.538Z,869.48
2018-08-08T04:55:47.546Z,869.41
2018-08-08T04:56:47.548Z,869.44
2018-08-08T04:57:47.195Z,869.40
2018-08-08T04:58:47.526Z,869.43
2018-08-08T04:59:47.521Z,869.43
2018-08-08T05:00:47.169Z,869.45
2018-08-08T05:01:47.494Z,869.42
2018-08-08T05:02:47.512Z,869.39
2018-08-08T05:03:47.175Z,869.37
2018-08-08T05:04:47.488Z,869.36
2018-08-08T05:05:47.154Z,869.29
2018-08-08T05:06:47.479Z,869.30
2018-08-08T05:07:47.468Z,869.33
2018-08-08T05:08:47.144Z,869.34
2018-08-08T05:09:47.450Z,869.34
2018-08-08T05:10:47.442Z,869.35
2018-08-08T05:11:47.112Z,869.31
2018-08-08T05:12:47.110Z,869.29
2018-08-08T05:13:47.414Z,869.32
2018-08-08T05:14:47.094Z,869.34
2018-08-08T05:15:47.087Z,869.34
2018-08-08T05:16:47.413Z,869.33
2018-08-08T05:17:47.071Z,869.32
2018-08-08T05:18:47.078Z,869.33
2018-08-08T05:19:47.378Z,869.33
2018-08-08T05:20:47.059Z,869.31
2018-08-08T05:21:47.380Z,869.35
2018-08-08T05:22:47.044Z,869.28
2018-08-08T05:23:47.020Z,869.29
2018-08-08T05:24:47.026Z,869.29
2018-08-08T05:25:47.026Z,869.28
2018-08-08T05:26:47.013Z,869.28
2018-08-08T05:27:47.342Z,869.28
2018-08-08T05:28:47.312Z,869.27
2018-08-08T05:29:47.332Z,869.28
2018-08-08T05:30:47.007Z,869.20
2018-08-08T05:31:46.973Z,869.23
2018-08-08T05:32:47.292Z,869.27
2018-08-08T05:33:46.989Z,869.25
2018-08-08T05:34:46.951Z,869.22
2018-08-08T05:35:46.934Z,869.28
2018-08-08T05:36:46.954Z,869.24
2018-08-08T05:37:46.945Z,869.24
2018-08-08T05:38:46.920Z,869.23
2018-08-08T05:39:46.944Z,869.20
2018-08-08T05:40:46.917Z,869.20
2018-08-08T05:41:47.307Z,869.20
2018-08-08T05:42:46.931Z,869.17
2018-08-08T05:43:47.250Z,869.17
2018-08-08T05:44:46.904Z,869.19
2018-08-08T05:45:47.265Z,869.20
2018-08-08T05:46:47.229Z,869.19
2018-08-08T05:47:46.873Z,869.18
2018-08-08T05:48:46.865Z,869.18
2018-08-08T05:49:47.198Z,869.20
2018-08-08T05:50:47.211Z,869.21
2018-08-08T05:51:47.196Z,869.22
2018-08-08T05:52:47.190Z,869.17
2018-08-08T05:53:46.838Z,869.19
2018-08-08T05:54:47.173Z,869.24
2018-08-08T05:55:46.840Z,869.20
2018-08-08T05:56:47.163Z,869.18
2018-08-08T05:57:46.833Z,869.19
2018-08-08T05:58:47.187Z,869.18
2018-08-08T05:59:46.795Z,869.18
2018-08-08T06:00:47.134Z,869.14
2018-08-08T06:01:47.148Z,869.15
2018-08-08T06:02:46.772Z,869.13
2018-08-08T06:03:46.801Z,869.14
2018-08-08T06:04:46.751Z,869.10
2018-08-08T06:05:47.124Z,869.17
2018-08-08T06:06:47.109Z,869.19
2018-08-08T06:07:47.098Z,869.15
2018-08-08T06:08:46.742Z,869.15
2018-08-08T06:09:46.743Z,869.19
2018-08-08T06:10:47.107Z,869.20
2018-08-08T06:11:46.731Z,869.27
2018-08-08T06:12:46.732Z,869.23
2018-08-08T06:13:47.071Z,869.24
2018-08-08T06:14:46.716Z,869.18
2018-08-08T06:15:46.688Z,869.21
2018-08-08T06:16:46.696Z,869.18
2018-08-08T06:17:46.690Z,869.19
2018-08-08T06:18:46.681Z,869.18
2018-08-08T06:19:46.697Z,869.14
2018-08-08T06:20:46.697Z,869.15
2018-08-08T06:21:47.015Z,869.11
2018-08-08T06:22:46.648Z,869.09
2018-08-08T06:23:47.006Z,869.06
2018-08-08T06:24:46.637Z,869.03
2018-08-08T06:25:46.988Z,869.07
2018-08-08T06:26:46.635Z,869.04
2018-08-08T06:27:46.977Z,869.06
2018-08-08T06:28:46.957Z,869.03
2018-08-08T06:29:46.979Z,869.00
2018-08-08T06:30:46.952Z,868.96
2018-08-08T06:31:46.599Z,868.98
2018-08-08T06:32:46.589Z,869.01
2018-08-08T06:33:46.597Z,869.03
2018-08-08T06:34:46.591Z,869.01
2018-08-08T06:35:46.928Z,869.00
2018-08-08T06:36:46.922Z,869.00
2018-08-08T06:37:46.566Z,869.03
2018-08-08T06:38:46.536Z,868.99
2018-08-08T06:39:46.562Z,869.00
2018-08-08T06:40:46.900Z,869.01
2018-08-08T06:41:46.527Z,868.97
2018-08-08T06:42:46.914Z,868.99
2018-08-08T06:43:46.567Z,869.00
2018-08-08T06:44:46.900Z,868.99
2018-08-08T06:45:46.506Z,869.04
2018-08-08T06:46:46.860Z,869.03
2018-08-08T06:47:46.509Z,869.03
2018-08-08T06:48:46.472Z,869.02
2018-08-08T06:49:46.860Z,868.99
2018-08-08T06:50:46.863Z,869.03
2018-08-08T06:51:46.471Z,869.08
2018-08-08T06:52:46.458Z,869.02
2018-08-08T06:53:46.797Z,868.97
2018-08-08T06:54:46.456Z,868.99
2018-08-08T06:55:46.445Z,868.96
2018-08-08T06:56:46.790Z,868.97
2018-08-08T06:57:46.770Z,868.95
2018-08-08T06:58:46.782Z,868.96
2018-08-08T06:59:46.817Z,868.91
2018-08-08T07:00:46.764Z,868.92
2018-08-08T07:01:46.752Z,868.96
2018-08-08T07:02:46.407Z,868.94
2018-08-08T07:03:46.752Z,868.94
2018-08-08T07:04:46.380Z,868.90
2018-08-08T07:05:46.735Z,868.88
2018-08-08T07:06:46.733Z,868.88
2018-08-08T07:07:46.366Z,868.83
2018-08-08T07:08:46.356Z,868.85
2018-08-08T07:09:46.709Z,868.86
2018-08-08T07:10:46.698Z,868.83
2018-08-08T07:11:46.694Z,868.87
2018-08-08T07:12:46.332Z,868.89
2018-08-08T07:13:46.714Z,868.91
2018-08-08T07:14:46.316Z,868.89
2018-08-08T07:15:46.678Z,868.87
2018-08-08T07:16:46.660Z,868.91
2018-08-08T07:17:46.311Z,868.86
2018-08-08T07:18:46.637Z,868.87
2018-08-08T07:19:46.670Z,868.85
2018-08-08T07:20:46.264Z,868.84
2018-08-08T07:21:46.625Z,868.84
2018-08-08T07:22:46.271Z,868.84
2018-08-08T07:23:46.280Z,868.86
2018-08-08T07:24:46.240Z,868.88
2018-08-08T07:25:46.593Z,868.84
2018-08-08T07:26:46.597Z,868.81
2018-08-08T07:27:46.596Z,868.80
2018-08-08T07:28:46.250Z,868.81
2018-08-08T07:29:46.588Z,868.80
2018-08-08T07:30:46.570Z,868.77
2018-08-08T07:31:46.216Z,868.78
2018-08-08T07:32:46.228Z,868.81
2018-08-08T07:33:46.546Z,868.76
2018-08-08T07:34:46.198Z,868.78
2018-08-08T07:35:46.207Z,868.78
2018-08-08T07:36:46.186Z,868.77
2018-08-08T07:37:46.189Z,868.76
2018-08-08T07:38:46.546Z,868.76
2018-08-08T07:39:46.176Z,868.72
2018-08-08T07:40:46.530Z,868.68
2018-08-08T07:41:46.146Z,868.69
2018-08-08T07:42:46.506Z,868.70
2018-08-08T07:43:46.125Z,868.65
2018-08-08T07:44:46.488Z,868.67
2018-08-08T07:45:46.521Z,868.68
2018-08-08T07:46:46.505Z,868.66
2018-08-08T07:47:46.469Z,868.64
2018-08-08T07:48:46.464Z,868.65
2018-08-08T07:49:46.450Z,868.65
2018-08-08T07:50:46.439Z,868.65
2018-08-08T07:51:46.439Z,868.63
2018-08-08T07:52:46.425Z,868.64
2018-08-08T07:53:46.068Z,868.69
2018-08-08T07:54:46.443Z,868.65
2018-08-08T07:55:46.053Z,868.66
2018-08-08T07:56:46.069Z,868.68
2018-08-08T07:57:46.069Z,868.69
2018-08-08T07:58:46.457Z,868.66
2018-08-08T07:59:46.393Z,868.65
2018-08-08T08:00:46.027Z,868.66
2018-08-08T08:01:46.025Z,868.64
2018-08-08T08:02:46.393Z,868.65
2018-08-08T08:03:46.003Z,868.68
2018-08-08T08:04:46.009Z,868.67
2018-08-08T08:05:46.330Z,868.67
2018-08-08T08:06:46.369Z,868.65
2018-08-08T08:07:46.345Z,868.68
2018-08-08T08:08:45.984Z,868.64
2018-08-08T08:09:46.329Z,868.66
2018-08-08T08:10:46.312Z,868.65
2018-08-08T08:11:46.303Z,868.68
2018-08-08T08:12:46.354Z,868.66
2018-08-08T08:13:46.335Z,868.66
2018-08-08T08:14:45.965Z,868.67
2018-08-08T08:15:46.302Z,868.65
2018-08-08T08:16:46.315Z,868.67
2018-08-08T08:17:46.306Z,868.63
2018-08-08T08:18:46.270Z,868.64
2018-08-08T08:19:45.912Z,868.66
2018-08-08T08:20:46.236Z,868.67
2018-08-08T08:21:45.899Z,868.67
2018-08-08T08:22:45.869Z,868.69
2018-08-08T08:23:45.888Z,868.67
2018-08-08T08:24:46.224Z,868.68
2018-08-08T08:25:45.876Z,868.69
2018-08-08T08:26:46.214Z,868.69
2018-08-08T08:27:46.197Z,868.66
2018-08-08T08:28:46.174Z,868.67
2018-08-08T08:29:46.255Z,868.66
2018-08-08T08:30:46.167Z,868.68
2018-08-08T08:31:46.167Z,868.66
2018-08-08T08:32:45.819Z,868.72
2018-08-08T08:33:46.207Z,868.68
2018-08-08T08:34:46.165Z,868.72
2018-08-08T08:35:45.855Z,868.70
2018-08-08T08:36:45.828Z,868.74
2018-08-08T08:37:46.144Z,868.77
2018-08-08T08:38:46.137Z,868.77
2018-08-08T08:39:46.128Z,868.79
2018-08-08T08:40:46.122Z,868.75
2018-08-08T08:41:46.111Z,868.80
2018-08-08T08:42:46.103Z,868.81
2018-08-08T08:43:46.176Z,868.80
2018-08-08T08:44:45.743Z,868.79
2018-08-08T08:45:45.746Z,868.81
2018-08-08T08:46:46.079Z,868.78
2018-08-08T08:47:45.713Z,868.85
2018-08-08T08:48:45.723Z,868.79
2018-08-08T08:49:46.095Z,868.80
2018-08-08T08:50:46.069Z,868.84
2018-08-08T08:51:45.706Z,868.81
2018-08-08T08:52:45.692Z,868.76
2018-08-08T08:53:45.715Z,868.80
2018-08-08T08:54:46.072Z,868.82
2018-08-08T08:55:45.669Z,868.82
2018-08-08T08:56:46.031Z,868.80
2018-08-08T08:57:46.009Z,868.81
2018-08-08T08:58:46.009Z,868.79
2018-08-08T08:59:46.009Z,868.77
2018-08-08T09:00:45.994Z,868.80
2018-08-08T09:01:45.658Z,868.80
2018-08-08T09:02:45.627Z,868.80
2018-08-08T09:03:45.968Z,868.81
2018-08-08T09:04:45.611Z,868.81
2018-08-08T09:05:45.981Z,868.85
2018-08-08T09:06:45.956Z,868.87
2018-08-08T09:07:45.599Z,868.86
2018-08-08T09:08:45.610Z,868.86
2018-08-08T09:09:45.920Z,868.87
2018-08-08T09:10:45.583Z,868.87
2018-08-08T09:11:45.601Z,868.91
2018-08-08T09:12:45.573Z,868.90
2018-08-08T09:13:45.912Z,868.89
2018-08-08T09:14:45.548Z,868.88
2018-08-08T09:15:45.900Z,868.85
2018-08-08T09:16:45.895Z,868.88
2018-08-08T09:17:45.565Z,868.85
2018-08-08T09:18:45.872Z,868.87
2018-08-08T09:19:45.909Z,868.85
2018-08-08T09:20:45.532Z,868.87
2018-08-08T09:21:45.861Z,868.87
2018-08-08T09:22:45.486Z,868.87
2018-08-08T09:23:46.102Z,868.90
2018-08-08T09:24:45.509Z,868.87
2018-08-08T09:25:45.835Z,868.86
2018-08-08T09:26:45.463Z,868.86
2018-08-08T09:27:45.473Z,868.83
2018-08-08T09:28:45.797Z,868.85
2018-08-08T09:29:45.793Z,868.83
2018-08-08T09:30:45.814Z,868.86
2018-08-08T09:31:45.830Z,868.86
2018-08-08T09:32:45.781Z,868.83
2018-08-08T09:33:45.785Z,868.83
2018-08-08T09:34:45.757Z,868.84
2018-08-08T09:35:45.812Z,868.81
2018-08-08T09:36:45.416Z,868.82
2018-08-08T09:37:45.761Z,868.81
2018-08-08T09:38:45.403Z,868.81
2018-08-08T09:39:45.448Z,868.89
2018-08-08T09:40:45.776Z,868.86
2018-08-08T09:41:45.386Z,868.92
2018-08-08T09:42:45.373Z,868.94
2018-08-08T09:43:45.370Z,868.95
2018-08-08T09:44:45.380Z,868.92
2018-08-08T09:45:45.710Z,868.95
2018-08-08T09:46:45.331Z,868.94
2018-08-08T09:47:45.377Z,868.95
2018-08-08T09:48:45.676Z,868.92
2018-08-08T09:49:45.355Z,868.97
2018-08-08T09:50:45.709Z,868.97
2018-08-08T09:51:45.664Z,868.95
2018-08-08T09:52:45.315Z,868.96
2018-08-08T09:53:45.656Z,868.94
2018-08-08T09:54:45.647Z,868.98
2018-08-08T09:55:45.299Z,868.96
2018-08-08T09:56:45.636Z,868.98
2018-08-08T09:57:45.292Z,868.99
2018-08-08T09:58:45.675Z,868.98
2018-08-08T09:59:45.601Z,869.01
2018-08-08T10:00:45.254Z,868.99
2018-08-08T10:01:45.594Z,869.04
2018-08-08T10:02:45.622Z,869.00
2018-08-08T10:03:45.288Z,869.01
2018-08-08T10:04:45.584Z,869.05
2018-08-08T10:05:45.234Z,869.01
2018-08-08T10:06:45.225Z,868.98
2018-08-08T10:07:45.570Z,868.98
2018-08-08T10:08:45.594Z,868.99
2018-08-08T10:09:45.217Z,869.03
2018-08-08T10:10:45.192Z,869.02
2018-08-08T10:11:45.555Z,868.96
2018-08-08T10:12:45.530Z,868.96
2018-08-08T10:13:45.526Z,868.99
2018-08-08T10:14:45.185Z,868.96
2018-08-08T10:15:45.512Z,868.99
2018-08-08T10:16:45.497Z,869.00
2018-08-08T10:17:45.154Z,869.02
2018-08-08T10:18:45.139Z,869.01
2018-08-08T10:19:45.128Z,869.04
2018-08-08T10:20:45.486Z,869.02
2018-08-08T10:21:45.135Z,869.05
2018-08-08T10:22:45.144Z,869.05
2018-08-08T10:23:45.102Z,869.06
2018-08-08T10:24:45.473Z,869.05
2018-08-08T10:25:45.455Z,869.08
2018-08-08T10:26:45.091Z,869.09
2018-08-08T10:27:45.434Z,869.10
2018-08-08T10:28:45.421Z,869.07
2018-08-08T10:29:45.423Z,869.05
2018-08-08T10:30:45.045Z,869.09
2018-08-08T10:31:45.063Z,869.05
2018-08-08T10:32:45.057Z,869.06
2018-08-08T10:33:45.388Z,869.05
2018-08-08T10:34:45.023Z,869.07
2018-08-08T10:35:45.398Z,869.07
2018-08-08T10:36:45.393Z,869.10
2018-08-08T10:37:45.014Z,869.11
2018-08-08T10:38:45.020Z,869.12
2018-08-08T10:39:45.349Z,869.15
2018-08-08T10:40:45.351Z,869.15
2018-08-08T10:41:45.328Z,869.17
2018-08-08T10:42:45.334Z,869.14
2018-08-08T10:43:45.374Z,869.16
2018-08-08T10:44:44.978Z,869.19
2018-08-08T10:45:44.966Z,869.20
2018-08-08T10:46:44.987Z,869.19
2018-08-08T10:47:44.949Z,869.21
2018-08-08T10:48:45.296Z,869.23
2018-08-08T10:49:44.957Z,869.26
2018-08-08T10:50:45.289Z,869.24
2018-08-08T10:51:45.287Z,869.29
2018-08-08T10:52:45.264Z,869.26
2018-08-08T10:53:45.293Z,869.28
2018-08-08T10:54:45.268Z,869.35
2018-08-08T10:55:45.319Z,869.32
2018-08-08T10:56:45.242Z,869.36
2018-08-08T10:57:44.894Z,869.33
2018-08-08T10:58:44.881Z,869.33
2018-08-08T10:59:45.268Z,869.36
2018-08-08T11:00:45.219Z,869.38
2018-08-08T11:01:45.225Z,869.35
2018-08-08T11:02:44.839Z,869.35
2018-08-08T11:03:44.871Z,869.38
2018-08-08T11:04:44.860Z,869.39
2018-08-08T11:05:45.236Z,869.42
2018-08-08T11:06:45.184Z,869.39
2018-08-08T11:07:44.814Z,869.45
2018-08-08T11:08:44.831Z,869.41
2018-08-08T11:09:45.167Z,869.41
2018-08-08T11:10:44.805Z,869.42
2018-08-08T11:11:45.184Z,869.41
2018-08-08T11:12:44.784Z,869.44
2018-08-08T11:13:44.791Z,869.42
2018-08-08T11:14:44.782Z,869.45
2018-08-08T11:15:44.786Z,869.45
2018-08-08T11:16:45.116Z,869.46
2018-08-08T11:17:44.763Z,869.48
2018-08-08T11:18:44.755Z,869.50
2018-08-08T11:19:45.090Z,869.50
2018-08-08T11:20:44.722Z,869.48
2018-08-08T11:21:44.733Z,869.49
2018-08-08T11:22:44.722Z,869.47
2018-08-08T11:23:45.118Z,869.48
2018-08-08T11:24:44.725Z,869.49
2018-08-08T11:25:45.095Z,869.51
2018-08-08T11:26:45.057Z,869.51
2018-08-08T11:27:45.047Z,869.52
2018-08-08T11:28:44.682Z,869.53
2018-08-08T11:29:45.032Z,869.54
2018-08-08T11:30:44.667Z,869.56
2018-08-08T11:31:44.667Z,869.56
2018-08-08T11:32:44.677Z,869.57
2018-08-08T11:33:44.660Z,869.54
2018-08-08T11:34:44.651Z,869.51
2018-08-08T11:35:44.649Z,869.55
2018-08-08T11:36:44.667Z,869.54
2018-08-08T11:37:44.620Z,869.55
2018-08-08T11:38:44.629Z,869.53
2018-08-08T11:39:44.979Z,869.56
2018-08-08T11:40:44.613Z,869.58
2018-08-08T11:41:44.964Z,869.60
2018-08-08T11:42:44.613Z,869.61
2018-08-08T11:43:44.946Z,869.60
2018-08-08T11:44:44.946Z,869.58
2018-08-08T11:45:44.579Z,869.56
2018-08-08T11:46:44.584Z,869.56
2018-08-08T11:47:44.593Z,869.59
2018-08-08T11:48:44.916Z,869.58
2018-08-08T11:49:44.555Z,869.58
2018-08-08T11:50:44.538Z,869.58
2018-08-08T11:51:44.535Z,869.62
2018-08-08T11:52:44.874Z,869.62
2018-08-08T11:53:44.523Z,869.63
2018-08-08T11:54:44.871Z,869.62
2018-08-08T11:55:44.531Z,869.66
2018-08-08T11:56:44.513Z,869.67
2018-08-08T11:57:44.851Z,869.67
2018-08-08T11:58:44.855Z,869.63
2018-08-08T11:59:44.830Z,869.66
2018-08-08T12:00:44.477Z,869.65
2018-08-08T12:01:44.479Z,869.65
2018-08-08T12:02:44.875Z,869.66
2018-08-08T12:03:44.804Z,869.68
2018-08-08T12:04:44.439Z,869.69
2018-08-08T12:05:44.811Z,869.69
2018-08-08T12:06:44.798Z,869.69
2018-08-08T12:07:44.448Z,869.72
2018-08-08T12:08:44.434Z,869.68
2018-08-08T12:09:44.783Z,869.74
2018-08-08T12:10:44.756Z,869.74
2018-08-08T12:11:44.404Z,869.73
2018-08-08T12:12:44.780Z,869.72
2018-08-08T12:13:44.773Z,869.71
2018-08-08T12:14:44.760Z,869.68
2018-08-08T12:15:44.375Z,869.70
2018-08-08T12:16:44.387Z,869.73
2018-08-08T12:17:44.722Z,869.72
2018-08-08T12:18:44.361Z,869.76
2018-08-08T12:19:44.353Z,869.75
2018-08-08T12:20:44.363Z,869.75
2018-08-08T12:21:44.694Z,869.79
2018-08-08T12:22:44.370Z,869.78
2018-08-08T12:23:44.689Z,869.79
2018-08-08T12:24:44.668Z,869.85
2018-08-08T12:25:44.727Z,869.88
2018-08-08T12:26:44.307Z,869.88
2018-08-08T12:27:44.312Z,869.90
2018-08-08T12:28:44.299Z,869.89